To NAV CANADA Home Page Login to a new session Search on AWWS site Feedback and Comments Disclaimer Vers la page française équivalente Tips FAQ What's new on the site To the Forecasts and Observations / NOTAM section To "File a Flight Plan" website Publications and other links Update of the User's profile FIC Telephone Numbers My Weather Data Folder Route Weather Data Regional Weather Data Local Weather Data To the Forecasts and Observations / NOTAM section
Request Generated 04/21/2015 at 02:53:41 UTC . Weather information available at that time is displayed.

METAR/TAF

OTTAWA/MACDONALD-CARTIER INTL/ON    

SPECI CYOW 210218Z 08017KT 10SM BKN074 BKN100 08/08 A2953 RMK AC5AC2
PRESFR SLP003=
METAR CYOW 210200Z 09013KT 10SM -RA FEW054 BKN065 BKN070 09/08 A2955
RMK SC2SC3AC2 SLP009=
METAR CYOW 210100Z 10017KT 10SM -RA FEW045 OVC078 09/08 A2956 RMK
SC1AC7 PRESFR SLP011=
SPECI CYOW 210038Z 10013G18KT 6SM -RA BR BKN040 OVC065 09/08 A2958
RMK SC6SC2 SLP018=
METAR CYOW 210000Z 08013KT 8SM -RA BKN040 OVC080 09/07 A2956 RMK
SC6AC2 SLP012=

TAF CYOW 210243Z 2103/2124 08012KT P6SM FEW020 OVC070 TEMPO 2103/2104
3SM -SHRA BR FEW007 OVC020
FM210700 10008KT P6SM OVC020 TEMPO 2107/2110 3SM -SHRA BR OVC007
FM211000 21015G25KT P6SM BKN030 TEMPO 2110/2116 4SM -SHRA BR
OVC020
BECMG 2116/2118 24012G22KT
RMK NXT FCST BY 210600Z=
Your time UTC time
Weather data provided by Environment Canada and NAV CANADA